Time;durP1;ratioP1;P1;durP2;ratioP2;P2;SDS_P1;SDS_P2;PMS_P1;PMS_P2;Temp;Humidity;BMP_temperature;BMP_pressure;BME280_temperature;BME280_humidity;BME280_pressure;Samples;Min_cycle;Max_cycle;Signal;HPM_P1;HPM_P2
2021/06/02 00:00:01;;;;;;;11.70;8.53;;;;;;;19.15;76.19;98970.72;6276174;22;20024;-84
2021/06/02 00:02:27;;;;;;;10.25;8.00;;;;;;;19.11;76.78;98981.09;6276191;22;20065;-84
2021/06/02 00:04:54;;;;;;;12.35;8.85;;;;;;;19.09;76.75;98977.72;6175663;22;20024;-81
2021/06/02 00:07:22;;;;;;;12.07;8.38;;;;;;;19.09;77.11;98980.41;6277145;22;20012;-82
2021/06/02 00:09:49;;;;;;;13.57;7.93;;;;;;;19.16;76.87;98983.22;6277269;22;20039;-82
2021/06/02 00:12:15;;;;;;;12.60;8.32;;;;;;;19.20;76.57;98978.28;6250088;22;20360;-82
2021/06/02 00:14:41;;;;;;;11.85;7.72;;;;;;;19.23;76.51;98983.34;6250229;22;20471;-80
2021/06/02 00:17:07;;;;;;;9.80;7.45;;;;;;;19.26;76.21;98988.38;6275494;22;20030;-81
2021/06/02 00:19:33;;;;;;;9.80;8.18;;;;;;;19.06;76.76;98983.50;6277133;22;20020;-81
2021/06/02 00:22:00;;;;;;;14.82;9.65;;;;;;;19.07;76.93;98982.50;6275628;22;20023;-80
2021/06/02 00:24:26;;;;;;;10.55;7.70;;;;;;;19.05;76.51;98975.56;6250180;22;20066;-81
2021/06/02 00:27:04;;;;;;;10.15;8.32;;;;;;;19.08;76.98;98981.47;6274962;22;20023;-82
2021/06/02 00:29:34;;;;;;;9.60;7.40;;;;;;;19.04;76.64;98973.91;6252595;22;20042;-82
2021/06/02 00:32:02;;;;;;;10.90;8.38;;;;;;;19.09;76.88;98979.59;6224992;22;20250;-81
2021/06/02 00:34:28;;;;;;;9.07;7.78;;;;;;;19.07;76.91;98979.78;6199599;22;20459;-81
2021/06/02 00:36:54;;;;;;;12.00;8.52;;;;;;;19.07;76.63;98982.50;6275429;22;20012;-81
2021/06/02 00:39:20;;;;;;;9.52;7.65;;;;;;;18.97;77.04;98973.78;6275012;22;20054;-81
2021/06/02 00:41:51;;;;;;;13.07;8.43;;;;;;;18.98;77.16;98969.22;6276781;22;20027;-81
2021/06/02 00:44:18;;;;;;;11.77;8.00;;;;;;;18.81;77.48;98974.81;6249798;22;20016;-81
2021/06/02 00:46:47;;;;;;;12.95;7.78;;;;;;;18.94;77.73;98979.56;6250324;22;20352;-82
2021/06/02 00:49:15;;;;;;;9.73;7.60;;;;;;;18.97;77.29;98973.78;6275178;22;20367;-83
2021/06/02 00:51:41;;;;;;;11.90;7.50;;;;;;;18.93;77.58;98980.59;6275374;22;20020;-81
2021/06/02 00:54:07;;;;;;;10.77;7.32;;;;;;;18.97;77.59;98981.06;6275549;22;20073;-83
2021/06/02 00:57:04;;;;;;;8.48;7.18;;;;;;;18.96;77.43;98982.13;6275624;22;20019;-82
2021/06/02 00:59:44;;;;;;;9.35;8.02;;;;;;;18.97;77.16;98979.22;6276179;22;20027;-82
2021/06/02 01:02:17;;;;;;;10.75;7.82;;;;;;;18.99;77.22;98982.56;6249747;22;20329;-82
2021/06/02 01:04:44;;;;;;;11.00;7.90;;;;;;;19.00;77.28;98983.41;6249859;22;20024;-79
2021/06/02 01:07:15;;;;;;;10.82;7.90;;;;;;;19.03;76.96;98983.91;6249348;22;20356;-81
2021/06/02 01:09:50;;;;;;;7.90;7.10;;;;;;;18.95;77.15;98973.13;6275758;22;20102;-81
2021/06/02 01:12:23;;;;;;;7.53;6.60;;;;;;;19.11;77.13;98985.66;6217798;22;20103;-80
2021/06/02 01:14:53;;;;;;;10.65;7.47;;;;;;;19.20;76.60;98989.97;6226029;22;20023;-80
2021/06/02 01:17:28;;;;;;;13.90;7.53;;;;;;;19.25;76.41;98986.69;6199314;22;20035;-80
2021/06/02 01:20:00;;;;;;;13.57;7.82;;;;;;;19.21;76.47;98979.97;6249621;22;20019;-81
2021/06/02 01:22:33;;;;;;;11.85;7.60;;;;;;;19.28;76.22;98987.16;6250720;22;20015;-82
2021/06/02 01:25:18;;;;;;;7.40;6.60;;;;;;;19.27;76.14;98987.34;6224209;22;20482;-81
2021/06/02 01:27:44;;;;;;;10.80;7.07;;;;;;;19.24;76.19;98996.69;6199572;22;20035;-83
2021/06/02 01:30:15;;;;;;;12.70;7.63;;;;;;;19.27;76.27;98990.06;6276377;22;20068;-82
2021/06/02 01:32:54;;;;;;;10.30;7.40;;;;;;;19.28;76.03;98984.44;6225261;22;20016;-82
2021/06/02 01:35:44;;;;;;;9.98;7.40;;;;;;;19.33;76.02;98984.75;6279811;22;20023;-80
2021/06/02 01:38:32;;;;;;;8.50;7.45;;;;;;;19.29;75.98;98996.13;6276392;22;20023;-82
2021/06/02 01:41:24;;;;;;;10.55;8.02;;;;;;;19.25;75.96;98986.69;6288192;22;20004;-83
2021/06/02 01:44:28;;;;;;;10.43;8.63;;;;;;;19.15;76.52;98998.66;6276071;22;20028;-79
2021/06/02 01:47:11;;;;;;;9.98;8.50;;;;;;;19.06;76.68;98997.03;6281562;22;20054;-80
2021/06/02 01:50:03;;;;;;;11.32;8.23;;;;;;;19.21;76.57;98996.22;6178061;22;20414;-83
2021/06/02 01:52:34;;;;;;;9.98;8.10;;;;;;;19.24;76.57;98995.84;6235842;22;20024;-80
2021/06/02 01:55:14;;;;;;;12.95;8.30;;;;;;;19.25;76.71;98997.53;6276135;22;20019;-81
2021/06/02 01:57:40;;;;;;;11.63;7.85;;;;;;;19.25;76.41;98997.53;6226473;22;20107;-81
2021/06/02 02:00:27;;;;;;;11.07;7.88;;;;;;;19.24;76.01;98995.84;6277099;22;20408;-82
2021/06/02 02:03:03;;;;;;;10.50;8.40;;;;;;;19.13;76.64;98992.56;6199268;22;20027;-78
2021/06/02 02:05:53;;;;;;;10.65;8.07;;;;;;;19.08;76.91;98992.28;6174285;22;20062;-81
2021/06/02 02:08:46;;;;;;;12.43;7.82;;;;;;;18.88;77.27;98974.88;6224134;22;20019;-81
2021/06/02 02:11:35;;;;;;;9.45;8.05;;;;;;;19.06;77.34;98994.34;6252061;22;20028;-80
2021/06/02 02:14:39;;;;;;;15.98;8.52;;;;;;;19.14;77.12;98985.28;6177894;22;20011;-82
2021/06/02 02:17:29;;;;;;;11.68;8.82;;;;;;;19.19;77.18;98984.75;6278482;22;20098;-81
2021/06/02 02:20:04;;;;;;;11.38;8.43;;;;;;;19.19;77.07;98976.59;6251167;22;20015;-81
2021/06/02 02:22:33;;;;;;;12.25;8.38;;;;;;;19.22;76.99;98981.63;6227879;22;20038;-80
2021/06/02 02:25:21;;;;;;;12.50;8.57;;;;;;;19.21;77.10;98975.38;6250968;22;20482;-81
2021/06/02 02:28:01;;;;;;;14.10;8.70;;;;;;;19.21;76.91;98979.97;6251307;22;20015;-80
2021/06/02 02:30:48;;;;;;;10.30;7.88;;;;;;;19.24;77.05;98979.59;6201921;22;20020;-83
2021/06/02 02:33:20;;;;;;;10.85;8.75;;;;;;;19.24;77.04;98985.00;6250479;22;20485;-82
2021/06/02 02:36:00;;;;;;;12.18;9.43;;;;;;;19.32;77.05;98982.19;6225137;22;20521;-82
2021/06/02 02:39:08;;;;;;;10.90;8.68;;;;;;;19.41;76.60;98986.50;6250744;22;20023;-83
2021/06/02 02:41:46;;;;;;;10.73;8.65;;;;;;;19.36;76.63;98984.34;6219825;22;20023;-81
2021/06/02 02:44:42;;;;;;;10.13;8.90;;;;;;;19.39;76.53;98989.38;6251337;22;20351;-81
2021/06/02 02:47:38;;;;;;;12.20;9.02;;;;;;;19.41;76.61;98981.09;6277746;22;20335;-79
2021/06/02 02:50:34;;;;;;;12.73;8.88;;;;;;;19.51;76.17;98975.34;6225811;22;20030;-81
2021/06/02 02:53:06;;;;;;;10.95;8.25;;;;;;;19.58;76.11;98977.13;6250966;22;20023;-82
2021/06/02 02:55:34;;;;;;;12.07;7.85;;;;;;;19.64;76.07;98975.56;6176077;22;20435;-81
2021/06/02 02:58:09;;;;;;;12.80;8.73;;;;;;;19.72;75.69;98977.31;6225397;22;20015;-81
2021/06/02 03:00:41;;;;;;;9.23;7.85;;;;;;;19.75;75.82;98987.81;6227442;22;20463;-79
2021/06/02 03:03:19;;;;;;;8.85;7.95;;;;;;;19.83;75.86;98984.97;6273926;22;20019;-81
2021/06/02 03:06:06;;;;;;;9.67;8.67;;;;;;;19.84;75.03;98981.22;6251076;22;20015;-82
2021/06/02 03:08:42;;;;;;;12.75;8.00;;;;;;;19.93;75.30;98984.66;6251596;22;20019;-81
2021/06/02 03:11:18;;;;;;;12.32;8.25;;;;;;;20.06;75.05;98992.94;6226328;22;20026;-81
2021/06/02 03:13:50;;;;;;;8.70;7.82;;;;;;;20.14;74.56;98992.81;6225302;22;20023;-80
2021/06/02 03:16:30;;;;;;;8.73;7.82;;;;;;;20.07;74.41;98987.31;6175993;22;20016;-83
2021/06/02 03:19:11;;;;;;;11.73;8.35;;;;;;;20.10;74.34;99005.94;6200479;22;20015;-81
2021/06/02 03:22:06;;;;;;;9.30;8.27;;;;;;;20.19;74.21;99016.66;6226787;22;20023;-83
2021/06/02 03:24:58;;;;;;;11.05;7.85;;;;;;;20.26;73.70;99012.97;6225053;22;20016;-84
2021/06/02 03:27:35;;;;;;;10.45;7.57;;;;;;;20.21;73.71;99009.19;6187001;22;20046;-86
2021/06/02 03:30:28;;;;;;;8.63;6.97;;;;;;;20.31;73.68;99015.97;6200123;22;20136;-84
2021/06/02 03:33:27;;;;;;;8.32;7.10;;;;;;;20.45;72.99;99008.78;6278353;22;20015;-84
2021/06/02 03:35:55;;;;;;;11.25;8.07;;;;;;;20.51;72.78;99010.75;6200998;22;20026;-86
2021/06/02 03:38:41;;;;;;;15.65;7.95;;;;;;;20.54;72.90;99010.38;6226728;22;20024;-88
2021/06/02 03:41:47;;;;;;;25.17;21.92;;;;;;;20.56;72.97;99012.88;6255259;22;20045;-86
2021/06/02 03:44:19;;;;;;;9.75;8.50;;;;;;;20.60;72.44;99025.88;6226127;22;20019;-86
2021/06/02 03:47:00;;;;;;;12.70;8.10;;;;;;;20.68;72.52;99024.88;6250508;22;20016;-82
2021/06/02 03:50:06;;;;;;;9.43;7.38;;;;;;;20.66;71.64;99023.44;6226725;22;20479;-81
2021/06/02 03:52:47;;;;;;;11.32;7.38;;;;;;;20.51;71.89;99020.78;6225616;22;20020;-87
2021/06/02 03:55:34;;;;;;;8.38;7.07;;;;;;;20.65;71.89;99017.16;6251068;22;20452;-84
2021/06/02 03:58:18;;;;;;;10.82;9.05;;;;;;;20.59;71.81;99023.34;6199745;22;20027;-85
2021/06/02 04:00:47;;;;;;;12.18;7.85;;;;;;;20.35;72.65;99021.84;6202359;22;20356;-87
2021/06/02 04:03:21;;;;;;;9.15;7.53;;;;;;;20.44;72.12;99008.97;6251156;22;20015;-86
2021/06/02 04:05:54;;;;;;;10.07;8.45;;;;;;;20.48;71.85;99011.09;6280521;22;20374;-87
2021/06/02 04:08:42;;;;;;;13.43;8.38;;;;;;;20.70;72.09;99020.13;6229043;22;20012;-84
2021/06/02 04:11:25;;;;;;;11.45;7.18;;;;;;;20.95;71.87;99028.69;6225763;22;20352;-88
2021/06/02 04:13:57;;;;;;;9.30;7.70;;;;;;;21.07;71.71;99021.66;6227186;22;20023;-90
2021/06/02 04:16:38;;;;;;;12.13;8.05;;;;;;;21.23;70.77;99022.41;6202062;22;20498;-85
2021/06/02 04:19:09;;;;;;;11.77;7.93;;;;;;;21.26;70.55;99030.16;6250844;22;20027;-88
2021/06/02 04:21:38;;;;;;;11.77;8.30;;;;;;;21.30;70.33;99023.28;6199974;22;20403;-82
2021/06/02 04:24:06;;;;;;;12.20;8.80;;;;;;;21.43;70.63;99031.53;6277424;22;20039;-79
2021/06/02 04:26:33;;;;;;;10.20;7.90;;;;;;;21.44;70.40;99019.63;6199627;22;20030;-90
2021/06/02 04:29:00;;;;;;;12.63;7.60;;;;;;;21.60;69.83;99028.50;6200337;22;20149;-83
2021/06/02 04:31:27;;;;;;;11.00;7.40;;;;;;;21.65;69.60;99034.16;6249763;22;20019;-85
2021/06/02 04:33:55;;;;;;;9.32;7.28;;;;;;;21.60;69.93;99025.78;6250513;22;20030;-85
2021/06/02 04:36:22;;;;;;;9.57;7.53;;;;;;;21.67;69.70;99022.06;6224436;22;20047;-87
2021/06/02 04:38:48;;;;;;;10.95;8.43;;;;;;;21.65;69.17;99001.53;6226897;22;20011;-88
2021/06/02 04:41:14;;;;;;;13.45;7.70;;;;;;;21.76;69.35;99020.81;6199430;22;20020;-81
2021/06/02 04:43:40;;;;;;;9.13;6.95;;;;;;;21.81;68.98;99028.38;6254685;22;20521;-86
2021/06/02 04:46:09;;;;;;;11.45;7.43;;;;;;;21.70;68.62;99048.00;6182434;22;20032;-85
2021/06/02 04:48:35;;;;;;;15.02;7.97;;;;;;;21.68;68.87;99053.66;6202033;22;20038;-83
2021/06/02 04:51:28;;;;;;;9.13;7.13;;;;;;;21.80;68.54;99070.25;6276566;22;20355;-89
2021/06/02 04:54:21;;;;;;;13.10;8.30;;;;;;;21.89;68.12;99069.03;6200315;22;20012;-88
2021/06/02 04:56:56;;;;;;;9.15;7.72;;;;;;;22.03;68.13;99057.16;6226575;22;20019;-85
2021/06/02 04:59:37;;;;;;;12.07;7.57;;;;;;;22.22;68.18;99062.91;6279504;22;20020;-86
2021/06/02 05:02:19;;;;;;;9.65;7.30;;;;;;;22.28;66.81;99053.91;6252934;22;20038;-87
2021/06/02 05:05:06;;;;;;;11.90;7.57;;;;;;;22.38;66.78;99054.38;6250706;22;20051;-86
2021/06/02 05:08:09;;;;;;;10.27;6.55;;;;;;;22.16;66.08;99053.69;6203444;22;20022;-86
2021/06/02 05:10:49;;;;;;;10.88;6.97;;;;;;;21.93;67.24;99056.72;6252473;22;20031;-86
2021/06/02 05:13:52;;;;;;;11.80;6.85;;;;;;;21.71;66.89;99060.56;6219018;22;20062;-87
2021/06/02 05:16:49;;;;;;;8.63;6.70;;;;;;;21.56;67.47;99058.81;6279430;22;20534;-86
2021/06/02 05:22:35;;;;;;;8.52;6.70;;;;;;;22.07;66.19;99068.47;6277418;22;20019;-87
2021/06/02 05:25:27;;;;;;;9.43;6.82;;;;;;;22.10;65.77;99072.69;6278534;22;20103;-87
2021/06/02 05:28:14;;;;;;;10.35;6.38;;;;;;;22.27;65.55;99076.75;6250938;22;20026;-85
2021/06/02 05:35:18;;;;;;;10.48;8.95;;;;;;;22.92;64.02;99075.22;6279172;22;20094;-89
2021/06/02 05:38:02;;;;;;;10.18;7.57;;;;;;;23.20;63.89;99072.25;6278462;22;20049;-87
2021/06/02 05:41:06;;;;;;;12.98;7.15;;;;;;;23.46;63.41;99081.47;6287561;22;20026;-85
2021/06/02 05:44:11;;;;;;;7.28;6.57;;;;;;;23.32;61.93;99075.22;6303815;22;20019;-83
2021/06/02 05:46:46;;;;;;;13.98;7.30;;;;;;;22.74;62.60;99083.97;6281107;22;20027;-85
2021/06/02 05:49:31;;;;;;;9.75;6.82;;;;;;;22.83;62.99;99087.34;6275485;22;20094;-87
2021/06/02 05:52:09;;;;;;;11.65;7.75;;;;;;;22.77;62.48;99089.00;6277513;22;20023;-88
2021/06/02 05:54:35;;;;;;;11.17;6.93;;;;;;;22.93;61.96;99104.16;6249752;22;20022;-84
2021/06/02 05:57:12;;;;;;;9.10;6.38;;;;;;;22.80;60.98;99109.56;6276627;22;20024;-90
2021/06/02 05:59:39;;;;;;;7.20;6.07;;;;;;;22.81;61.92;99110.41;6256763;22;20051;-92
2021/06/02 06:02:36;;;;;;;7.60;6.63;;;;;;;22.73;61.32;99103.25;6231977;22;20019;-93
2021/06/02 06:09:21;;;;;;;7.57;6.35;;;;;;;22.32;62.60;99096.03;6278314;22;20026;-88
2021/06/02 06:11:59;;;;;;;9.00;6.50;;;;;;;22.48;62.66;99112.00;6276396;22;20020;-90
2021/06/02 06:14:46;;;;;;;12.65;6.22;;;;;;;22.37;61.82;99109.88;6275909;22;20319;-83
2021/06/02 06:17:43;;;;;;;10.00;6.38;;;;;;;22.37;61.81;99111.75;6274669;22;20034;-85
2021/06/02 06:20:33;;;;;;;8.20;6.63;;;;;;;22.37;62.06;99112.59;6275499;22;20015;-89
2021/06/02 06:23:19;;;;;;;7.07;6.45;;;;;;;22.36;62.49;99102.75;6278182;22;20348;-87
2021/06/02 06:26:32;;;;;;;10.35;7.60;;;;;;;22.28;63.08;99105.66;6253654;22;20083;-88
2021/06/02 06:29:05;;;;;;;9.38;7.05;;;;;;;22.18;63.10;99110.63;6225902;22;20031;-90
2021/06/02 06:31:33;;;;;;;9.73;7.10;;;;;;;22.02;63.71;99112.63;6225047;22;20016;-92
2021/06/02 06:34:05;;;;;;;13.50;8.13;;;;;;;21.89;64.10;99109.88;6225294;22;20059;-87
2021/06/02 06:36:31;;;;;;;14.55;8.10;;;;;;;21.97;64.19;99115.13;6276455;22;20459;-90
2021/06/02 06:39:20;;;;;;;11.00;7.93;;;;;;;21.99;64.44;99117.63;6199500;22;20012;-83
2021/06/02 06:41:48;;;;;;;13.43;8.30;;;;;;;21.67;65.70;99097.38;6275109;22;20081;-84
2021/06/02 06:44:15;;;;;;;12.95;8.52;;;;;;;21.42;66.98;99119.59;6200169;22;20028;-89
2021/06/02 06:46:45;;;;;;;10.65;8.48;;;;;;;21.12;67.66;99108.03;6276036;22;20016;-94
2021/06/02 06:49:12;;;;;;;14.88;8.95;;;;;;;21.10;68.42;99119.13;6251358;22;20019;-88
2021/06/02 06:51:40;;;;;;;11.63;8.43;;;;;;;20.90;68.59;99104.50;6274678;22;20016;-88
2021/06/02 06:54:08;;;;;;;13.38;8.52;;;;;;;20.97;68.45;99115.44;6276169;22;20023;-88
2021/06/02 06:56:44;;;;;;;11.70;8.75;;;;;;;21.18;68.18;99111.88;6254982;22;20038;-92
2021/06/02 06:59:11;;;;;;;13.35;9.07;;;;;;;21.29;68.01;99114.03;6277650;22;20335;-83
2021/06/02 07:01:37;;;;;;;14.73;9.48;;;;;;;21.37;68.13;99113.94;6278897;22;20046;-87
2021/06/02 07:04:04;;;;;;;11.25;9.18;;;;;;;21.41;68.24;99120.66;6252680;22;20098;-82
2021/06/02 07:06:30;;;;;;;17.50;10.20;;;;;;;21.42;68.56;99111.44;6277543;22;20024;-87
2021/06/02 07:08:56;;;;;;;16.27;9.80;;;;;;;21.49;68.66;99125.94;6204358;22;20024;-87
2021/06/02 07:11:22;;;;;;;14.45;9.50;;;;;;;21.42;68.44;99122.31;6279320;22;20050;-89
2021/06/02 07:13:48;;;;;;;13.32;9.77;;;;;;;21.28;68.52;99131.38;6282060;22;20019;-90
2021/06/02 07:16:15;;;;;;;15.27;10.57;;;;;;;21.14;69.35;99138.59;6257257;22;20027;-83
2021/06/02 07:18:44;;;;;;;16.25;10.77;;;;;;;21.04;69.98;99146.22;6282163;22;20386;-84
2021/06/02 07:21:11;;;;;;;20.23;11.23;;;;;;;20.99;70.82;99146.81;6255742;22;20102;-86
2021/06/02 07:23:40;;;;;;;13.88;9.40;;;;;;;20.98;70.92;99134.25;6256135;22;20026;-86
2021/06/02 07:26:07;;;;;;;14.75;9.38;;;;;;;20.97;70.52;99134.44;6256166;22;20118;-89
2021/06/02 07:28:37;;;;;;;14.57;10.05;;;;;;;20.57;71.17;99112.31;6230652;22;20068;-85
2021/06/02 07:31:04;;;;;;;12.20;9.30;;;;;;;20.19;72.38;99120.63;6262064;22;20045;-95
2021/06/02 07:33:30;;;;;;;10.77;9.00;;;;;;;19.94;72.73;99116.56;6267521;22;20025;-89
2021/06/02 07:35:56;;;;;;;11.77;8.43;;;;;;;19.83;73.38;99124.13;6259485;22;20035;-92
2021/06/02 07:38:22;;;;;;;13.45;8.65;;;;;;;19.71;73.80;99111.22;6322574;22;20076;-94
2021/06/02 07:40:49;;;;;;;12.63;8.95;;;;;;;19.85;73.42;99118.50;6261551;22;20019;-91
2021/06/02 07:43:18;;;;;;;13.23;9.88;;;;;;;19.81;73.59;99117.22;6266496;22;20026;-94
2021/06/02 07:45:44;;;;;;;13.13;9.43;;;;;;;19.83;73.82;99107.03;6257101;22;20406;-93
2021/06/02 07:52:05;;;;;;;15.25;11.43;;;;;;;20.12;73.69;99088.00;6280916;22;20020;-89
2021/06/02 07:54:31;;;;;;;18.42;12.55;;;;;;;20.36;73.61;99105.81;6278411;22;20022;-90
2021/06/02 07:56:57;;;;;;;18.58;11.95;;;;;;;20.28;74.30;99113.22;6253116;22;20356;-86
2021/06/02 07:59:23;;;;;;;17.65;12.65;;;;;;;20.18;74.77;99112.69;6226363;22;20055;-88
2021/06/02 08:01:53;;;;;;;22.80;13.40;;;;;;;20.20;75.21;99116.03;6256610;22;20023;-87
2021/06/02 08:04:19;;;;;;;20.08;12.70;;;;;;;20.36;74.62;99104.97;6227357;22;20026;-88
2021/06/02 08:06:45;;;;;;;16.90;13.27;;;;;;;20.26;75.08;99099.00;6250632;22;20359;-88
2021/06/02 08:09:17;;;;;;;18.35;12.73;;;;;;;20.19;75.03;99108.94;6277421;22;20047;-87
2021/06/02 08:11:46;;;;;;;18.52;12.75;;;;;;;20.25;74.84;99103.59;6206924;22;20045;-91
2021/06/02 08:14:13;;;;;;;14.38;12.10;;;;;;;20.09;75.48;99093.81;6223048;22;20020;-92
2021/06/02 08:16:39;;;;;;;15.68;11.82;;;;;;;19.97;75.92;99100.75;6208466;22;20020;-89
2021/06/02 08:19:05;;;;;;;14.65;10.38;;;;;;;19.85;75.20;99091.38;6278227;22;20020;-86
2021/06/02 08:21:32;;;;;;;15.98;10.57;;;;;;;19.71;75.65;99078.66;6285279;22;20035;-90
2021/06/02 08:23:58;;;;;;;16.88;10.00;;;;;;;19.80;75.23;99082.97;6250895;22;20095;-93
2021/06/02 08:26:27;;;;;;;24.97;12.93;;;;;;;19.96;75.62;99082.75;6294683;22;20039;31
2021/06/02 08:28:56;;;;;;;18.65;11.93;;;;;;;20.22;75.20;99081.41;6193391;23;20237;-90
2021/06/02 08:31:24;;;;;;;24.85;12.98;;;;;;;20.48;74.54;99086.28;6191262;23;20115;-90
2021/06/02 08:33:50;;;;;;;30.35;15.88;;;;;;;20.74;74.18;99078.44;6217000;23;20024;-92
2021/06/02 08:36:16;;;;;;;34.05;17.27;;;;;;;21.04;73.90;99083.72;6217514;23;20017;-91
2021/06/02 08:38:42;;;;;;;31.73;16.30;;;;;;;21.31;73.38;99087.47;6217926;23;20344;-89
2021/06/02 08:41:08;;;;;;;35.33;17.25;;;;;;;21.48;72.87;99061.72;6217969;23;20115;-91
2021/06/02 08:43:35;;;;;;;40.25;17.50;;;;;;;21.93;72.02;99086.66;6192109;23;20031;-90
2021/06/02 08:46:01;;;;;;;38.25;17.92;;;;;;;22.37;71.01;99079.91;6145874;23;20016;-89
2021/06/02 08:48:27;;;;;;;43.67;18.20;;;;;;;22.83;70.25;99081.91;6222995;23;20020;-87
2021/06/02 08:50:54;;;;;;;35.45;18.40;;;;;;;23.32;68.70;99086.13;6169081;23;20021;-89
2021/06/02 08:53:20;;;;;;;42.42;16.00;;;;;;;23.68;67.48;99087.56;6218754;23;20448;-87
2021/06/02 08:55:46;;;;;;;46.20;16.27;;;;;;;23.88;66.46;99082.88;6164992;23;20456;-89
2021/06/02 08:58:19;;;;;;;32.78;16.65;;;;;;;23.90;65.92;99083.50;6141067;23;20031;-85
2021/06/02 09:00:45;;;;;;;42.35;14.73;;;;;;;23.98;65.76;99096.06;6140297;23;20024;-85
2021/06/02 09:03:11;;;;;;;30.35;14.00;;;;;;;24.19;65.61;99092.22;6167636;23;20047;-89
2021/06/02 09:05:37;;;;;;;22.95;11.15;;;;;;;24.43;65.33;99085.19;6193365;23;20031;-89
2021/06/02 09:08:04;;;;;;;21.17;9.00;;;;;;;24.80;63.81;99097.16;6166529;23;20020;-86
2021/06/02 09:10:38;;;;;;;14.90;8.52;;;;;;;25.22;62.43;99089.28;6167649;23;20043;-90
2021/06/02 09:13:05;;;;;;;10.85;7.90;;;;;;;25.32;60.95;99091.53;6193541;23;20361;-87
2021/06/02 09:15:35;;;;;;;9.43;6.82;;;;;;;25.01;59.28;99089.63;6160580;23;20103;-90
2021/06/02 09:18:04;;;;;;;9.32;7.20;;;;;;;24.86;59.98;99092.69;6166580;23;20032;-91
2021/06/02 09:20:37;;;;;;;7.57;5.93;;;;;;;24.90;58.56;99089.31;6168721;23;20005;-87
2021/06/02 09:23:31;;;;;;;8.40;6.47;;;;;;;25.21;60.16;99084.88;6191570;23;20028;-89
2021/06/02 09:26:09;;;;;;;6.47;5.85;;;;;;;25.51;59.10;99084.19;6214652;23;20028;-88
2021/06/02 09:28:59;;;;;;;9.45;6.57;;;;;;;25.22;57.95;99081.06;6224805;23;20024;-90
2021/06/02 09:31:26;;;;;;;8.65;6.55;;;;;;;25.12;59.41;99091.66;6217650;23;20024;-86
2021/06/02 09:33:53;;;;;;;12.73;6.95;;;;;;;24.88;59.56;99085.94;6216556;23;20111;-88
2021/06/02 09:36:37;;;;;;;7.07;5.78;;;;;;;24.37;60.29;99075.09;6190833;23;20020;-89
2021/06/02 09:39:05;;;;;;;9.40;6.40;;;;;;;24.47;60.37;99079.06;6194623;23;20104;-87
2021/06/02 09:41:38;;;;;;;8.93;6.43;;;;;;;24.21;60.44;99073.72;6202024;23;20020;-88
2021/06/02 09:44:24;;;;;;;7.53;5.70;;;;;;;24.01;61.38;99078.44;6184393;23;20029;-91
2021/06/02 09:47:10;;;;;;;9.98;5.80;;;;;;;24.09;60.90;99075.44;6194731;23;20475;-86
2021/06/02 09:49:56;;;;;;;8.30;5.40;;;;;;;24.48;60.56;99063.50;6165808;23;20079;-86
2021/06/02 09:52:43;;;;;;;6.70;5.07;;;;;;;24.94;58.82;99074.13;6191022;23;20016;-86
2021/06/02 09:55:23;;;;;;;7.15;5.13;;;;;;;25.33;58.46;99071.28;6190076;23;20079;-86
2021/06/02 09:58:14;;;;;;;7.53;4.53;;;;;;;25.72;56.02;99069.19;6190996;23;20101;-87
2021/06/02 10:00:45;;;;;;;7.78;4.63;;;;;;;25.99;55.48;99065.16;6139960;23;20027;-88
2021/06/02 10:03:13;;;;;;;6.18;4.57;;;;;;;26.13;55.02;99068.53;6189419;23;20071;-85
2021/06/02 10:05:49;;;;;;;8.32;4.95;;;;;;;26.39;55.00;99059.13;6213777;23;20099;-86
2021/06/02 10:08:28;;;;;;;9.10;4.90;;;;;;;26.54;54.44;99056.00;6165999;23;20353;-86
2021/06/02 10:10:54;;;;;;;9.32;4.78;;;;;;;26.43;54.46;99063.06;6213557;23;20020;-89
2021/06/02 10:13:21;;;;;;;7.80;5.15;;;;;;;26.06;55.26;99065.88;6164615;23;20117;-90
2021/06/02 10:15:49;;;;;;;7.10;5.03;;;;;;;26.06;55.56;99065.03;6215032;23;20021;-87
2021/06/02 10:18:28;;;;;;;7.47;5.30;;;;;;;26.20;55.26;99060.22;6222635;23;20020;-86
2021/06/02 10:21:09;;;;;;;62.33;53.42;;;;;;;26.13;55.70;99050.19;6169551;23;20400;-87
2021/06/02 10:23:38;;;;;;;14.95;8.00;;;;;;;26.17;55.83;99058.78;6166557;23;20027;-90
2021/06/02 10:26:04;;;;;;;14.10;5.65;;;;;;;25.83;56.17;99060.25;6189184;23;20016;-85
2021/06/02 10:28:30;;;;;;;9.45;5.25;;;;;;;25.54;55.69;99061.81;6213508;23;20078;-86
2021/06/02 10:30:57;;;;;;;12.50;4.97;;;;;;;25.50;55.53;99072.41;6194047;23;20464;-89
2021/06/02 10:33:23;;;;;;;8.93;5.43;;;;;;;25.55;54.94;99063.50;6168788;23;20449;-86
2021/06/02 10:35:49;;;;;;;10.18;4.25;;;;;;;25.18;54.42;99053.31;6216908;23;20023;-86
2021/06/02 10:38:15;;;;;;;9.05;4.45;;;;;;;25.09;55.06;99065.59;6217032;23;20025;-85
2021/06/02 10:40:41;;;;;;;4.72;3.85;;;;;;;25.11;55.15;99060.75;6215631;23;20024;-85
2021/06/02 10:43:20;;;;;;;5.45;3.42;;;;;;;25.01;55.77;99048.59;6215138;23;20365;-85
2021/06/02 10:46:00;;;;;;;;;;;;;;;25.15;55.68;99056.50;6191914;23;20016;-84
2021/06/02 10:48:43;;;;;;;7.07;4.20;;;;;;;25.16;55.71;99060.94;6203852;23;19919;-86
2021/06/02 10:51:29;;;;;;;6.65;4.32;;;;;;;25.34;55.95;99068.31;6211943;23;20326;-83
2021/06/02 10:54:10;;;;;;;10.77;5.30;;;;;;;25.51;55.55;99045.88;6192259;23;20079;-84
2021/06/02 10:56:37;;;;;;;10.85;4.72;;;;;;;25.89;55.21;99045.66;6195375;23;20017;-83
2021/06/02 10:59:23;;;;;;;14.38;5.70;;;;;;;26.48;54.82;99035.00;6217145;23;20103;-80
2021/06/02 11:02:05;;;;;;;26.67;7.75;;;;;;;27.04;52.78;99045.50;6191482;23;20132;-82
2021/06/02 11:04:33;;;;;;;32.13;12.13;;;;;;;26.72;52.58;99047.69;6215668;23;20023;-84
2021/06/02 11:07:15;;;;;;;38.10;13.63;;;;;;;26.01;54.69;99043.00;6214946;23;20020;-82
2021/06/02 11:10:02;;;;;;;30.52;11.88;;;;;;;25.46;56.00;99053.91;6217164;23;20028;-78
2021/06/02 11:12:50;;;;;;;41.47;11.43;;;;;;;24.92;57.43;99059.81;6190869;23;20020;-81
2021/06/02 11:15:33;;;;;;;38.22;11.35;;;;;;;24.58;58.59;99054.84;6215254;23;20027;-79
2021/06/02 11:18:09;;;;;;;33.72;11.00;;;;;;;24.38;59.40;99058.50;6213845;23;20020;-79
2021/06/02 11:20:45;;;;;;;37.25;9.88;;;;;;;24.84;58.56;99057.38;6214827;23;20028;-78
2021/06/02 11:23:12;;;;;;;48.55;14.85;;;;;;;24.89;57.59;99037.56;6189378;23;20079;-78
2021/06/02 11:25:39;;;;;;;38.03;14.50;;;;;;;24.74;57.94;99042.53;6189921;23;20423;-77
2021/06/02 11:28:06;;;;;;;33.58;13.48;;;;;;;24.71;57.33;99044.66;6189691;23;20046;-78
2021/06/02 11:30:32;;;;;;;36.40;13.68;;;;;;;24.77;56.68;99040.19;6188830;23;20021;-79
2021/06/02 11:33:06;;;;;;;38.15;13.48;;;;;;;25.52;55.25;99031.94;6189684;23;20071;-79
2021/06/02 11:35:55;;;;;;;27.90;10.95;;;;;;;26.24;53.47;99050.47;6189965;23;20023;-81
2021/06/02 11:38:22;;;;;;;32.25;9.70;;;;;;;26.58;51.09;99025.13;6214519;23;20052;-83
2021/06/02 11:40:48;;;;;;;24.17;9.20;;;;;;;26.69;50.50;99036.38;6189382;23;20464;-87
2021/06/02 11:43:14;;;;;;;30.65;9.15;;;;;;;26.20;51.59;99030.09;6215310;23;20035;-85
2021/06/02 11:45:43;;;;;;;25.67;9.85;;;;;;;25.82;52.30;99036.69;6212543;23;20068;-80
2021/06/02 11:48:17;;;;;;;26.08;8.98;;;;;;;25.91;51.61;99035.31;6213569;23;20021;-78
2021/06/02 11:50:43;;;;;;;24.60;9.00;;;;;;;25.76;51.99;99016.50;6165927;23;20028;-82
2021/06/02 11:53:10;;;;;;;20.95;8.27;;;;;;;26.03;51.37;99022.53;6189382;23;20024;-86
2021/06/02 11:55:36;;;;;;;19.52;7.53;;;;;;;26.08;51.32;99024.56;6189875;23;20070;-80
2021/06/02 11:58:03;;;;;;;15.82;6.97;;;;;;;25.91;51.38;99027.94;6189849;23;20029;-79
2021/06/02 12:00:33;;;;;;;24.92;7.70;;;;;;;25.62;52.40;99021.31;6214554;23;20028;-80
2021/06/02 12:03:26;;;;;;;14.65;5.85;;;;;;;25.19;53.95;99026.81;6165563;23;20016;-78
2021/06/02 12:05:55;;;;;;;12.85;4.65;;;;;;;24.93;54.19;99034.16;6186252;23;20020;-80
2021/06/02 12:08:21;;;;;;;12.40;4.13;;;;;;;24.74;54.73;99024.22;6190185;23;20400;-82
2021/06/02 12:10:52;;;;;;;7.45;3.53;;;;;;;24.83;54.12;99033.84;6165526;23;20040;-82
2021/06/02 12:13:31;;;;;;;13.63;4.28;;;;;;;24.79;54.38;99040.81;6190483;23;20024;-80
2021/06/02 12:16:01;;;;;;;13.90;4.32;;;;;;;24.31;55.67;99035.84;6189295;23;20027;-83
2021/06/02 12:18:43;;;;;;;12.68;3.92;;;;;;;24.30;55.81;99039.63;6164724;23;20151;-83